EGPI/ILY METAR and TAF weather

Enter ICAO airport designator
Station Type Date Time Source
EGPI METAR 2019/05/23 18:50 UTC NOAA

EGPI 231850Z AUTO 30011KT 9999 NCD 12/07 Q1016


Station Type Date Time Source
EGPI Decoded METAR 2019/05/23 18:50 UTC NOAA

Islay, United Kingdom (EGPI) 55-40-55N 006-15-24W
May 23, 2019 - 02:50 PM EDT / 2019.05.23 1850 UTC
Wind: from the WNW (300 degrees) at 13 MPH (11 KT):0
Visibility: greater than 7 mile(s):0
Temperature: 53 F (12 C)
Dew Point: 44 F (7 C)
Relative Humidity: 71%
Pressure (altimeter): 30.00 in. Hg (1016 hPa)
ob: EGPI 231850Z AUTO 30011KT 9999 NCD 12/07 Q1016
cycle: 19

Station Type Date Time Source
EGPI TAF UTC NOAA

Error!

Example: see airport list